Airfield :
LOGIN :

Register | Disclaimer

   EN    FR    IT 

 










Legend :    VFR   Marginal VFR   IFR   Intensive IFR   Very Intensive IFR
Visi :
Ceiling :
>= 8 km
>= 3000ft
5 to 8 km
1000 to 3000 ft
1500m to 5 km
500 to 1000 ft
800 to 1500m
200 to 500 ft
< 800m
< 200 ft
Symbols :   Thunderstorms  Fog  Heavy snow  Heavy precipitations  Wind > 20 kt
SIGMETs :     Misc.  Thunderstorms  Icing  Turbulence  Mountain Waves  Volcanic Ashes







- Airport Elevation : 374 ft
- IATA code : LIS


LPPT - Lisboa Portela

CURRENT METAR :
  • 161430Z 12007KT 070V190 CAVOK 17/07 Q1021

EXPIRED METARs :
  • 161400Z VRB06KT CAVOK 17/08 Q1021
  • 161330Z VRB03KT CAVOK 17/09 Q1022
  • 161300Z 08004KT 010V130 CAVOK 16/08 Q1022
  • 161230Z 06005KT 010V110 CAVOK 14/08 Q1023
  • 161200Z 08007KT 050V120 CAVOK 14/08 Q1023

TAF TAF LPPT
Valid from the 16 at 12:00 until the 17 at 18:00 UTC


161130Z 1612/1718 09005KT CAVOK
BECMG 1614/1616 25005KT
BECMG 1618/1620 30007KT
BECMG 1703/1706 VRB03KT 5000 BR SCT008
PROB30 1706/1709 0300 FG VV001
BECMG 1709/1712 18005KT 9999 NSW FEW030
BECMG 1715/1718 BKN030
No reported NOTAMs for that airfield.



MET'MAP, your aeronautical weather chart ! - Copyright ORBIFLY December 2007 - Disclaimer

ORBIFLY MET'MAP TEAM :

Programming & Development : Alexandra Zaïnal
Concept & Development : Baudouin d'Aumeries
Co-Development & Prog : Marc-Olivier Méhu
Technical & hardware support : Manuel Goepfert

Contact : metmap@orbifly.com




SOURCES & CREDITS :

   NOAA